Time;durP1;ratioP1;P1;durP2;ratioP2;P2;SDS_P1;SDS_P2;PMS_P1;PMS_P2;Temp;Humidity;BMP_temperature;BMP_pressure;BME280_temperature;BME280_humidity;BME280_pressure;Samples;Min_cycle;Max_cycle;Signal;HPM_P1;HPM_P2
2022/06/03 00:02:13;;;;;;;;;;;13.90;67.80;;;;;;5050580;28;19931;-79
2022/06/03 00:04:53;;;;;;;;;;;13.70;68.40;;;;;;5051962;28;19923;-79
2022/06/03 00:07:24;;;;;;;;;;;13.80;68.10;;;;;;5051658;28;19913;-79
2022/06/03 00:10:09;;;;;;;;;;;13.80;67.90;;;;;;5041668;28;19920;-78
2022/06/03 00:12:41;;;;;;;;;;;13.80;68.40;;;;;;5059298;28;19913;-79
2022/06/03 00:15:17;;;;;;;;;;;13.80;68.30;;;;;;5036709;28;20014;-78
2022/06/03 00:17:45;;;;;;;;;;;13.80;68.30;;;;;;5065746;28;19916;-79
2022/06/03 00:20:21;;;;;;;;;;;13.60;68.90;;;;;;5051023;28;20257;-79
2022/06/03 00:22:49;;;;;;;;;;;13.60;69.10;;;;;;5050659;28;20426;-78
2022/06/03 00:25:23;;;;;;;;;;;13.60;69.10;;;;;;5057680;28;19913;-79
2022/06/03 00:28:03;;;;;;;;;;;13.50;69.50;;;;;;5049451;28;19917;-79
2022/06/03 00:30:39;;;;;;;;;;;13.60;68.80;;;;;;5052160;28;20008;-79
2022/06/03 00:33:14;;;;;;;;;;;13.60;68.80;;;;;;5037902;28;20368;-78
2022/06/03 00:35:42;;;;;;;;;;;13.80;68.20;;;;;;5046894;28;19913;-79
2022/06/03 00:38:16;;;;;;;;;;;13.60;68.80;;;;;;5050416;28;19917;-79
2022/06/03 00:40:42;;;;;;;;;;;13.60;68.70;;;;;;5042639;28;20004;-78
2022/06/03 00:43:27;;;;;;;;;;;13.40;69.50;;;;;;5040465;28;20012;-78
2022/06/03 00:45:59;;;;;;;;;;;13.50;69.30;;;;;;5044177;28;20461;-78
2022/06/03 00:48:36;;;;;;;;;;;13.20;70.30;;;;;;5038994;28;19976;-79
2022/06/03 00:51:11;;;;;;;;;;;13.10;70.90;;;;;;5048606;28;19913;-79
2022/06/03 00:53:55;;;;;;;;;;;13.10;70.90;;;;;;5046459;28;19913;-79
2022/06/03 00:56:33;;;;;;;;;;;13.10;70.70;;;;;;5047469;28;19944;-79
2022/06/03 00:59:08;;;;;;;;;;;13.10;70.80;;;;;;5045820;28;20252;-79
2022/06/03 01:01:46;;;;;;;;;;;13.10;70.60;;;;;;5042334;28;19913;-79
2022/06/03 01:04:35;;;;;;;;;;;13.10;70.70;;;;;;5039499;28;19927;-79
2022/06/03 01:07:25;;;;;;;;;;;13.30;70.10;;;;;;5045911;28;20372;-79
2022/06/03 01:10:02;;;;;;;;;;;13.30;70.20;;;;;;5041455;28;19910;-79
2022/06/03 01:12:42;;;;;;;;;;;13.10;70.50;;;;;;5051307;28;19917;-79
2022/06/03 01:15:28;;;;;;;;;;;13.10;70.90;;;;;;5062764;28;19986;-79
2022/06/03 01:17:57;;;;;;;;;;;13.00;71.60;;;;;;5059865;28;19913;-79
2022/06/03 01:20:39;;;;;;;;;;;12.90;71.70;;;;;;5050997;28;19954;-79
2022/06/03 01:23:16;;;;;;;;;;;12.80;72.20;;;;;;5043499;28;19968;-79
2022/06/03 01:25:54;;;;;;;;;;;12.70;73.10;;;;;;5036679;28;19947;-79
2022/06/03 01:28:19;;;;;;;;;;;12.90;71.90;;;;;;5041610;28;19912;-79
2022/06/03 01:30:57;;;;;;;;;;;12.80;72.10;;;;;;5047220;28;19913;-79
2022/06/03 01:33:36;;;;;;;;;;;12.80;72.60;;;;;;5040988;28;19913;-79
2022/06/03 01:36:25;;;;;;;;;;;12.80;72.00;;;;;;5046526;28;20379;-79
2022/06/03 01:39:01;;;;;;;;;;;12.70;72.40;;;;;;5034557;28;19917;-79
2022/06/03 01:41:45;;;;;;;;;;;12.70;72.50;;;;;;5041643;28;19927;-79
2022/06/03 01:44:13;;;;;;;;;;;12.60;73.00;;;;;;5045709;28;19944;-79
2022/06/03 01:46:45;;;;;;;;;;;12.40;73.60;;;;;;5047558;28;19920;-79
2022/06/03 01:49:34;;;;;;;;;;;12.50;74.00;;;;;;5044773;28;19913;-79
2022/06/03 01:52:18;;;;;;;;;;;12.50;74.20;;;;;;5026229;28;20267;-79
2022/06/03 01:55:02;;;;;;;;;;;12.30;74.20;;;;;;5041714;28;19920;-79
2022/06/03 01:57:38;;;;;;;;;;;12.30;74.20;;;;;;5049886;28;20311;-79
2022/06/03 02:00:16;;;;;;;;;;;12.10;74.20;;;;;;5045771;28;19924;-79
2022/06/03 02:02:50;;;;;;;;;;;12.10;74.80;;;;;;5037494;28;19916;-79
2022/06/03 02:05:34;;;;;;;;;;;12.10;74.70;;;;;;5039353;28;20008;-80
2022/06/03 02:08:05;;;;;;;;;;;12.10;75.10;;;;;;5041105;28;20018;-79
2022/06/03 02:10:37;;;;;;;;;;;12.10;75.00;;;;;;5039822;28;20468;-79
2022/06/03 02:13:21;;;;;;;;;;;12.00;75.10;;;;;;5048638;28;20011;-79
2022/06/03 02:15:49;;;;;;;;;;;12.00;75.60;;;;;;5037244;28;19973;-79
2022/06/03 02:18:15;;;;;;;;;;;12.10;75.60;;;;;;5047867;28;20279;-79
2022/06/03 02:21:03;;;;;;;;;;;12.10;75.10;;;;;;5043898;28;19934;-79
2022/06/03 02:23:47;;;;;;;;;;;12.10;75.10;;;;;;5046945;28;20331;-79
2022/06/03 02:26:15;;;;;;;;;;;12.00;75.50;;;;;;5038414;28;19913;-78
2022/06/03 02:28:47;;;;;;;;;;;12.10;74.90;;;;;;5039416;28;19929;-82
2022/06/03 02:31:17;;;;;;;;;;;12.10;75.20;;;;;;5038410;28;19913;-78
2022/06/03 02:33:57;;;;;;;;;;;12.30;73.50;;;;;;5045502;28;19923;-79
2022/06/03 02:36:41;;;;;;;;;;;12.30;73.50;;;;;;5034361;28;19948;-78
2022/06/03 02:39:17;;;;;;;;;;;12.30;73.20;;;;;;5037656;28;19912;-78
2022/06/03 02:41:45;;;;;;;;;;;12.30;73.40;;;;;;5051204;28;19917;-78
2022/06/03 02:44:30;;;;;;;;;;;12.30;73.20;;;;;;5047956;28;19950;-78
2022/06/03 02:47:06;;;;;;;;;;;12.20;73.50;;;;;;5037142;28;19988;-79
2022/06/03 02:49:46;;;;;;;;;;;12.00;74.70;;;;;;5038942;28;19931;-79
2022/06/03 02:52:32;;;;;;;;;;;12.00;74.70;;;;;;5049074;28;19916;-78
2022/06/03 02:55:13;;;;;;;;;;;11.90;75.00;;;;;;5043204;28;20008;-78
2022/06/03 02:57:51;;;;;;;;;;;11.80;75.50;;;;;;5046487;28;19917;-79
2022/06/03 03:00:42;;;;;;;;;;;11.80;75.60;;;;;;5045193;28;19917;-81
2022/06/03 03:03:17;;;;;;;;;;;11.90;75.40;;;;;;5020671;28;19920;-78
2022/06/03 03:05:50;;;;;;;;;;;12.00;74.80;;;;;;5052933;28;19916;-78
2022/06/03 03:08:27;;;;;;;;;;;11.90;75.10;;;;;;5054945;28;19952;-78
2022/06/03 03:11:12;;;;;;;;;;;12.00;74.50;;;;;;5045206;28;19927;-78
2022/06/03 03:14:01;;;;;;;;;;;11.90;75.40;;;;;;5051235;28;19924;-78
2022/06/03 03:16:35;;;;;;;;;;;11.80;75.40;;;;;;5047691;28;19936;-79
2022/06/03 03:19:08;;;;;;;;;;;11.60;76.20;;;;;;5046531;28;20337;-79
2022/06/03 03:21:51;;;;;;;;;;;11.60;76.30;;;;;;5046946;28;19923;-79
2022/06/03 03:24:40;;;;;;;;;;;11.60;76.10;;;;;;5048023;28;19924;-79
2022/06/03 03:27:15;;;;;;;;;;;11.80;75.50;;;;;;5038242;28;19975;-79
2022/06/03 03:30:01;;;;;;;;;;;11.60;75.80;;;;;;5036556;28;19936;-79
2022/06/03 03:32:44;;;;;;;;;;;11.50;76.20;;;;;;5047876;28;19967;-79
2022/06/03 03:35:33;;;;;;;;;;;11.30;77.10;;;;;;5034044;28;19932;-79
2022/06/03 03:38:05;;;;;;;;;;;11.30;77.20;;;;;;5015975;28;19924;-78
2022/06/03 03:40:50;;;;;;;;;;;11.50;77.00;;;;;;5045886;28;19943;-78
2022/06/03 03:43:41;;;;;;;;;;;11.50;76.90;;;;;;5048918;28;19923;-79
2022/06/03 03:46:19;;;;;;;;;;;11.50;76.40;;;;;;5042513;28;20303;-79
2022/06/03 03:48:53;;;;;;;;;;;11.50;76.90;;;;;;5048459;28;19913;-79
2022/06/03 03:51:28;;;;;;;;;;;11.40;76.80;;;;;;5040532;28;20291;-79
2022/06/03 03:54:14;;;;;;;;;;;11.60;76.70;;;;;;5047181;28;19913;-79
2022/06/03 03:56:59;;;;;;;;;;;11.60;76.40;;;;;;5040367;28;19958;-79
2022/06/03 03:59:24;;;;;;;;;;;11.60;76.90;;;;;;5046823;28;20307;-79
2022/06/03 04:02:14;;;;;;;;;;;11.50;76.70;;;;;;5044325;28;19924;-78
2022/06/03 04:04:48;;;;;;;;;;;11.40;77.20;;;;;;5041257;28;19921;-79
2022/06/03 04:07:33;;;;;;;;;;;11.50;77.40;;;;;;5050647;28;19986;-78
2022/06/03 04:10:17;;;;;;;;;;;11.60;76.90;;;;;;5045330;28;19917;-78
2022/06/03 04:12:48;;;;;;;;;;;11.60;77.20;;;;;;5048178;28;19960;-78
2022/06/03 04:15:32;;;;;;;;;;;11.70;76.60;;;;;;5046630;28;19927;-79
2022/06/03 04:18:12;;;;;;;;;;;11.80;76.10;;;;;;5061371;28;19916;-81
2022/06/03 04:20:56;;;;;;;;;;;11.60;76.80;;;;;;5056921;28;20415;-78
2022/06/03 04:23:52;;;;;;;;;;;11.60;77.10;;;;;;5043714;28;19925;-79
2022/06/03 04:26:27;;;;;;;;;;;11.70;76.30;;;;;;5052099;28;19917;-78
2022/06/03 04:28:56;;;;;;;;;;;11.60;76.60;;;;;;5054527;28;19924;-78
2022/06/03 04:31:24;;;;;;;;;;;11.70;76.90;;;;;;5050342;28;19921;-79
2022/06/03 04:34:00;;;;;;;;;;;11.60;77.00;;;;;;5052581;28;20318;-79
2022/06/03 04:36:49;;;;;;;;;;;11.60;77.40;;;;;;5049073;28;20397;-79
2022/06/03 04:39:34;;;;;;;;;;;11.60;77.10;;;;;;5040665;28;19913;-79
2022/06/03 04:42:11;;;;;;;;;;;11.80;76.60;;;;;;5042985;28;20326;-78
2022/06/03 04:47:53;;;;;;;;;;;;;;;;;;;;;
2022/06/03 04:53:53;;;;;;;;;;;;;;;;;;;;;
2022/06/03 04:56:48;;;;;;;;;;;12.10;76.40;;;;;;5047900;28;19913;-78
2022/06/03 05:06:01;;;;;;;;;;;12.30;75.50;;;;;;5045280;28;19923;-79
2022/06/03 05:11:53;;;;;;;;;;;12.50;74.80;;;;;;5046166;28;20386;-79
2022/06/03 05:14:37;;;;;;;;;;;12.60;74.80;;;;;;5039030;28;19924;-82
2022/06/03 05:17:08;;;;;;;;;;;12.60;74.90;;;;;;5047780;28;19913;-78
2022/06/03 05:19:49;;;;;;;;;;;12.80;74.60;;;;;;5046199;28;19981;-78
2022/06/03 05:22:14;;;;;;;;;;;12.90;74.00;;;;;;5045259;28;19929;-79
2022/06/03 05:24:58;;;;;;;;;;;13.10;74.10;;;;;;5052596;28;19981;-78
2022/06/03 05:27:43;;;;;;;;;;;13.10;73.40;;;;;;5051665;28;19924;-78
2022/06/03 05:30:19;;;;;;;;;;;13.10;72.90;;;;;;5057008;28;19913;-79
2022/06/03 05:33:02;;;;;;;;;;;13.10;73.50;;;;;;5053216;23;20246;-79
2022/06/03 05:35:31;;;;;;;;;;;13.10;73.10;;;;;;5040671;28;19956;-79
2022/06/03 05:38:06;;;;;;;;;;;13.10;73.50;;;;;;5061413;28;19913;-78
2022/06/03 05:40:57;;;;;;;;;;;13.10;72.60;;;;;;5048998;28;20008;-77
2022/06/03 05:43:52;;;;;;;;;;;13.20;72.50;;;;;;5049209;28;19927;-77
2022/06/03 05:46:22;;;;;;;;;;;13.30;72.30;;;;;;5052383;28;19913;-81
2022/06/03 05:49:06;;;;;;;;;;;13.60;72.50;;;;;;5080445;28;19965;-76
2022/06/03 05:51:31;;;;;;;;;;;13.60;71.80;;;;;;5062248;28;20372;-76
2022/06/03 05:54:07;;;;;;;;;;;13.90;70.80;;;;;;5062005;28;19919;-76
2022/06/03 05:56:48;;;;;;;;;;;14.00;70.50;;;;;;5072460;28;20277;-76
2022/06/03 05:59:28;;;;;;;;;;;13.90;70.50;;;;;;5061037;28;19948;-76
2022/06/03 06:02:13;;;;;;;;;;;13.90;70.80;;;;;;5057604;28;19916;-77
2022/06/03 06:04:57;;;;;;;;;;;13.80;70.20;;;;;;5050480;28;19916;-78
2022/06/03 06:07:27;;;;;;;;;;;14.00;71.20;;;;;;5062943;28;20012;-77
2022/06/03 06:09:55;;;;;;;;;;;14.00;70.60;;;;;;5057829;28;19916;-78
2022/06/03 06:12:24;;;;;;;;;;;14.00;70.40;;;;;;5058109;28;19916;-81
2022/06/03 06:14:50;;;;;;;;;;;14.10;70.30;;;;;;5052912;28;19921;-78
2022/06/03 06:17:34;;;;;;;;;;;14.20;69.50;;;;;;5061344;28;19920;-77
2022/06/03 06:20:29;;;;;;;;;;;14.30;69.60;;;;;;5061219;28;19912;-79
2022/06/03 06:23:02;;;;;;;;;;;14.40;69.00;;;;;;5053135;28;20412;-80
2022/06/03 06:25:34;;;;;;;;;;;14.50;69.00;;;;;;5065804;28;19939;-79
2022/06/03 06:28:04;;;;;;;;;;;14.70;68.50;;;;;;5069320;28;19968;-79
2022/06/03 06:30:35;;;;;;;;;;;14.80;67.50;;;;;;5084240;28;19908;-80
2022/06/03 06:33:20;;;;;;;;;;;14.90;67.80;;;;;;5077573;28;19901;-81
2022/06/03 06:35:58;;;;;;;;;;;14.90;67.60;;;;;;5083106;28;19954;-77
2022/06/03 06:38:42;;;;;;;;;;;15.00;68.10;;;;;;5082785;28;19904;-80
2022/06/03 06:41:07;;;;;;;;;;;15.10;68.50;;;;;;5069332;28;19917;-81
2022/06/03 06:43:39;;;;;;;;;;;15.30;67.10;;;;;;5060438;28;19917;-80
2022/06/03 06:46:14;;;;;;;;;;;15.30;66.40;;;;;;5061744;28;19993;-80
2022/06/03 06:48:58;;;;;;;;;;;15.50;66.00;;;;;;5052378;28;19959;-80
2022/06/03 06:51:30;;;;;;;;;;;15.50;65.60;;;;;;5061036;28;19917;-79
2022/06/03 06:54:10;;;;;;;;;;;15.60;66.00;;;;;;5068690;28;19912;-80
2022/06/03 06:56:39;;;;;;;;;;;15.60;66.60;;;;;;5071431;28;19985;-79
2022/06/03 06:59:07;;;;;;;;;;;15.70;65.50;;;;;;5080790;28;19974;-79
2022/06/03 07:01:33;;;;;;;;;;;15.80;66.50;;;;;;5081899;28;20030;-80
2022/06/03 07:04:03;;;;;;;;;;;16.00;66.70;;;;;;5059900;28;20233;-79
2022/06/03 07:06:40;;;;;;;;;;;16.20;64.10;;;;;;5062854;28;20578;-80
2022/06/03 07:09:11;;;;;;;;;;;16.20;64.70;;;;;;5061176;28;19930;-79
2022/06/03 07:11:50;;;;;;;;;;;16.20;63.90;;;;;;5054980;28;19970;-79
2022/06/03 07:14:18;;;;;;;;;;;16.20;65.10;;;;;;5063839;28;19981;-78
2022/06/03 07:19:48;;;;;;;;;;;16.30;65.60;;;;;;5060514;28;19994;-78
2022/06/03 07:22:17;;;;;;;;;;;16.50;64.70;;;;;;5050473;28;19974;-79
2022/06/03 07:24:48;;;;;;;;;;;16.50;63.30;;;;;;5056326;28;19918;-80
2022/06/03 07:27:26;;;;;;;;;;;16.50;63.00;;;;;;5056811;28;20001;-78
2022/06/03 07:30:18;;;;;;;;;;;16.70;63.00;;;;;;5065208;28;19967;-80
2022/06/03 07:32:57;;;;;;;;;;;17.00;63.40;;;;;;5074114;28;19913;-80
2022/06/03 07:35:27;;;;;;;;;;;16.80;64.30;;;;;;5065578;28;20384;-80
2022/06/03 07:38:01;;;;;;;;;;;17.00;61.60;;;;;;5063644;28;19913;-80
2022/06/03 07:40:39;;;;;;;;;;;17.20;61.00;;;;;;5055497;28;19927;-82
2022/06/03 07:43:12;;;;;;;;;;;17.20;61.90;;;;;;5063492;28;19920;-81
2022/06/03 07:45:47;;;;;;;;;;;17.20;62.20;;;;;;5065258;28;19920;-82
2022/06/03 07:48:14;;;;;;;;;;;17.20;62.00;;;;;;5062514;28;20442;-81
2022/06/03 07:50:52;;;;;;;;;;;17.30;61.50;;;;;;5050383;28;19913;-81
2022/06/03 07:53:27;;;;;;;;;;;17.40;60.60;;;;;;5064474;28;19912;-81
2022/06/03 07:55:53;;;;;;;;;;;17.60;61.80;;;;;;5057766;28;19999;-82
2022/06/03 07:58:22;;;;;;;;;;;17.60;60.30;;;;;;5069666;28;19912;-79
2022/06/03 08:00:47;;;;;;;;;;;17.60;62.10;;;;;;5056455;28;19931;-84
2022/06/03 08:03:23;;;;;;;;;;;17.60;61.40;;;;;;5068580;28;19927;-83
2022/06/03 08:05:54;;;;;;;;;;;17.70;60.90;;;;;;5070892;28;19921;-80
2022/06/03 08:11:10;;;;;;;;;;;17.70;60.90;;;;;;5061004;28;19919;-84
2022/06/03 08:13:39;;;;;;;;;;;17.80;59.00;;;;;;5058393;28;19948;-81
2022/06/03 08:16:05;;;;;;;;;;;17.70;60.00;;;;;;5056718;28;19960;-78
2022/06/03 08:18:40;;;;;;;;;;;17.70;60.50;;;;;;5063428;28;19924;-79
2022/06/03 08:21:26;;;;;;;;;;;17.70;61.00;;;;;;5053438;28;19913;-81
2022/06/03 08:23:53;;;;;;;;;;;17.90;60.00;;;;;;5051725;28;20011;-79
2022/06/03 08:26:23;;;;;;;;;;;18.00;60.30;;;;;;5070443;28;19913;-81
2022/06/03 08:28:56;;;;;;;;;;;18.10;61.80;;;;;;5069508;28;19983;-81
2022/06/03 08:31:23;;;;;;;;;;;18.10;59.70;;;;;;5065596;28;19938;-81
2022/06/03 08:33:58;;;;;;;;;;;18.60;59.40;;;;;;5068156;28;19958;-81
2022/06/03 08:36:36;;;;;;;;;;;18.60;59.10;;;;;;5061615;28;19924;-81
2022/06/03 08:39:02;;;;;;;;;;;18.60;61.20;;;;;;5068687;28;19916;-78
2022/06/03 08:41:45;;;;;;;;;;;18.60;61.10;;;;;;5059272;28;19998;-78
2022/06/03 08:44:29;;;;;;;;;;;19.00;58.70;;;;;;5056899;28;19924;-79
2022/06/03 08:46:58;;;;;;;;;;;19.00;58.80;;;;;;5057380;28;19913;-80
2022/06/03 08:49:27;;;;;;;;;;;18.80;57.40;;;;;;5060211;28;19920;-79
2022/06/03 08:52:00;;;;;;;;;;;18.80;60.20;;;;;;5059616;28;19917;-78
2022/06/03 08:54:36;;;;;;;;;;;18.80;57.70;;;;;;5064217;28;20248;-81
2022/06/03 08:57:05;;;;;;;;;;;19.00;56.60;;;;;;5056574;28;20332;-79
2022/06/03 08:59:38;;;;;;;;;;;19.10;57.30;;;;;;5066348;28;20604;-77
2022/06/03 09:02:07;;;;;;;;;;;19.20;56.60;;;;;;5060152;28;19919;-77
2022/06/03 09:04:39;;;;;;;;;;;19.20;59.10;;;;;;5056985;28;19920;-74
2022/06/03 09:07:22;;;;;;;;;;;19.20;58.10;;;;;;5044908;28;19917;-76
2022/06/03 09:09:54;;;;;;;;;;;19.40;56.70;;;;;;5046322;28;19921;-75
2022/06/03 09:12:20;;;;;;;;;;;19.40;57.00;;;;;;5051418;28;19913;-77
2022/06/03 09:14:47;;;;;;;;;;;19.60;57.00;;;;;;5063974;28;20046;-76
2022/06/03 09:17:25;;;;;;;;;;;19.70;55.90;;;;;;5059316;28;19916;-76
2022/06/03 09:19:52;;;;;;;;;;;19.90;56.70;;;;;;5061323;28;19916;-76
2022/06/03 09:22:23;;;;;;;;;;;19.70;55.70;;;;;;5058567;28;19912;-77
2022/06/03 09:24:48;;;;;;;;;;;19.60;55.80;;;;;;5063974;28;20273;-76
2022/06/03 09:27:16;;;;;;;;;;;19.60;56.30;;;;;;5052884;28;19928;-76
2022/06/03 09:29:48;;;;;;;;;;;19.80;56.70;;;;;;5061668;28;19919;-75
2022/06/03 09:32:16;;;;;;;;;;;19.80;54.40;;;;;;5059902;28;20007;-77
2022/06/03 09:34:47;;;;;;;;;;;20.00;55.90;;;;;;5057006;28;19928;-78
2022/06/03 09:37:21;;;;;;;;;;;19.90;56.10;;;;;;5053446;28;19934;-77
2022/06/03 09:39:49;;;;;;;;;;;20.00;55.30;;;;;;5059780;28;20006;-75
2022/06/03 09:42:16;;;;;;;;;;;20.10;54.70;;;;;;5062318;28;19913;-75
2022/06/03 09:44:44;;;;;;;;;;;20.10;53.80;;;;;;5058692;28;19927;-77
2022/06/03 09:47:10;;;;;;;;;;;20.20;57.30;;;;;;5057498;28;19916;-77
2022/06/03 09:49:36;;;;;;;;;;;20.30;56.30;;;;;;5062202;28;19991;-77
2022/06/03 09:52:03;;;;;;;;;;;20.50;54.60;;;;;;5055768;28;20057;-77
2022/06/03 09:54:31;;;;;;;;;;;20.50;56.50;;;;;;5056013;28;19921;-76
2022/06/03 09:56:59;;;;;;;;;;;20.40;54.10;;;;;;5059775;28;20001;-75
2022/06/03 09:59:26;;;;;;;;;;;20.50;54.80;;;;;;5056185;28;19928;-75
2022/06/03 10:01:52;;;;;;;;;;;20.50;55.60;;;;;;5063325;28;19921;-74
2022/06/03 10:04:19;;;;;;;;;;;20.80;52.70;;;;;;5055302;22;19933;-79
2022/06/03 10:06:47;;;;;;;;;;;21.00;52.70;;;;;;5020896;28;19917;-79
2022/06/03 10:14:44;;;;;;;;;;;20.60;53.50;;;;;;5045342;28;19920;-79
2022/06/03 10:17:10;;;;;;;;;;;20.70;52.10;;;;;;5041597;28;19917;-80
2022/06/03 10:19:36;;;;;;;;;;;20.60;51.50;;;;;;5050085;28;21070;-83
2022/06/03 10:22:06;;;;;;;;;;;20.60;51.60;;;;;;5051975;28;19923;-81
2022/06/03 10:24:32;;;;;;;;;;;20.80;52.90;;;;;;5048854;28;19962;-79
2022/06/03 10:27:00;;;;;;;;;;;21.00;52.30;;;;;;5042382;28;19924;-80
2022/06/03 10:29:26;;;;;;;;;;;21.00;51.80;;;;;;5049409;28;19916;-80
2022/06/03 10:31:54;;;;;;;;;;;21.10;50.50;;;;;;5043784;28;19921;-80
2022/06/03 10:34:24;;;;;;;;;;;21.20;52.20;;;;;;5039602;28;19924;-80
2022/06/03 10:36:51;;;;;;;;;;;21.30;49.40;;;;;;5041826;28;19966;-76
2022/06/03 10:39:17;;;;;;;;;;;21.30;48.30;;;;;;5036082;28;19924;-79
2022/06/03 10:41:45;;;;;;;;;;;21.10;49.50;;;;;;5044619;28;19913;-78
2022/06/03 10:44:17;;;;;;;;;;;21.20;49.30;;;;;;5046833;28;19920;-79
2022/06/03 10:46:57;;;;;;;;;;;21.20;49.20;;;;;;5039337;28;20345;-79
2022/06/03 10:49:23;;;;;;;;;;;21.20;48.70;;;;;;5045319;28;19924;-82
2022/06/03 11:02:50;;;;;;;;;;;21.40;50.30;;;;;;5047002;28;20015;-83
2022/06/03 11:05:31;;;;;;;;;;;21.20;48.20;;;;;;5049434;28;20335;-77
2022/06/03 11:07:59;;;;;;;;;;;21.10;49.80;;;;;;5042722;28;19948;-77
2022/06/03 11:10:46;;;;;;;;;;;21.20;50.10;;;;;;5046730;28;20506;-78
2022/06/03 11:13:13;;;;;;;;;;;21.30;49.90;;;;;;5049691;28;20452;-78
2022/06/03 11:15:40;;;;;;;;;;;21.50;50.10;;;;;;5049996;28;19943;-78
2022/06/03 11:18:26;;;;;;;;;;;21.70;47.10;;;;;;5048538;28;19928;-78
2022/06/03 11:20:53;;;;;;;;;;;21.90;49.40;;;;;;5042039;28;20126;-77
2022/06/03 11:23:18;;;;;;;;;;;22.20;49.60;;;;;;5046524;28;19916;-76
2022/06/03 11:25:49;;;;;;;;;;;22.20;47.10;;;;;;5042186;28;19971;-77
2022/06/03 11:28:21;;;;;;;;;;;22.40;45.20;;;;;;5046441;28;19935;-77
2022/06/03 11:30:48;;;;;;;;;;;22.50;45.20;;;;;;5049184;28;20011;-76
2022/06/03 11:33:23;;;;;;;;;;;22.50;45.50;;;;;;5050614;28;19913;-79
2022/06/03 11:36:11;;;;;;;;;;;22.50;45.00;;;;;;5048545;28;19917;-78
2022/06/03 11:38:55;;;;;;;;;;;22.20;46.60;;;;;;5048741;28;20249;-77
2022/06/03 11:41:28;;;;;;;;;;;22.20;46.50;;;;;;5049759;28;19928;-78
2022/06/03 11:43:56;;;;;;;;;;;22.10;45.90;;;;;;5048463;28;19916;-76
2022/06/03 11:46:30;;;;;;;;;;;22.10;44.20;;;;;;5041238;28;19913;-79
2022/06/03 11:48:57;;;;;;;;;;;22.20;47.00;;;;;;5048998;28;19921;-77
2022/06/03 11:51:24;;;;;;;;;;;22.40;43.90;;;;;;5051873;28;19924;-76
2022/06/03 11:53:49;;;;;;;;;;;22.60;43.30;;;;;;5054345;28;19925;-78
2022/06/03 11:56:20;;;;;;;;;;;22.50;44.60;;;;;;5056113;28;19913;-78
2022/06/03 11:58:46;;;;;;;;;;;22.10;44.30;;;;;;5054625;28;19921;-80
2022/06/03 12:01:15;;;;;;;;;;;22.10;45.20;;;;;;5051798;28;20392;-79
2022/06/03 12:03:44;;;;;;;;;;;22.00;44.50;;;;;;5044962;28;19924;-77
2022/06/03 12:06:28;;;;;;;;;;;22.10;45.40;;;;;;5045540;28;19948;-76
2022/06/03 12:08:56;;;;;;;;;;;22.30;44.40;;;;;;5043638;28;20316;-77
2022/06/03 12:14:19;;;;;;;;;;;22.20;46.80;;;;;;5050069;28;19935;-77
2022/06/03 12:16:53;;;;;;;;;;;22.10;45.50;;;;;;5043994;28;20012;-75
2022/06/03 12:19:38;;;;;;;;;;;22.30;44.30;;;;;;5033797;28;19952;-78
2022/06/03 12:22:19;;;;;;;;;;;22.20;45.90;;;;;;5040939;28;20031;-78
2022/06/03 12:24:46;;;;;;;;;;;22.40;46.00;;;;;;5044721;28;19948;-79
2022/06/03 12:27:20;;;;;;;;;;;22.30;45.90;;;;;;5038631;28;19921;-77
2022/06/03 12:29:58;;;;;;;;;;;22.60;44.70;;;;;;5047670;28;20008;-79
2022/06/03 12:32:27;;;;;;;;;;;22.80;41.90;;;;;;5048977;28;20016;-80
2022/06/03 12:35:13;;;;;;;;;;;22.80;44.60;;;;;;5060023;23;20056;-81
2022/06/03 12:37:38;;;;;;;;;;;22.70;44.90;;;;;;5026877;28;19928;-82
2022/06/03 12:40:19;;;;;;;;;;;22.80;43.20;;;;;;5026320;28;19917;-81
2022/06/03 12:42:45;;;;;;;;;;;23.10;42.10;;;;;;5027715;28;19921;-81
2022/06/03 12:45:13;;;;;;;;;;;23.20;42.40;;;;;;5043358;28;19924;-83
2022/06/03 12:47:43;;;;;;;;;;;23.10;43.60;;;;;;5051344;28;20526;-79
2022/06/03 12:50:28;;;;;;;;;;;23.00;45.00;;;;;;5045343;28;19915;-78
2022/06/03 12:52:58;;;;;;;;;;;23.00;44.00;;;;;;5047821;28;19929;-86
2022/06/03 12:55:29;;;;;;;;;;;22.90;45.00;;;;;;5044167;28;19921;-79
2022/06/03 12:57:58;;;;;;;;;;;23.00;44.80;;;;;;5048848;28;19940;-81
2022/06/03 13:00:29;;;;;;;;;;;22.90;43.40;;;;;;5048693;28;19975;-79
2022/06/03 13:02:57;;;;;;;;;;;23.10;45.10;;;;;;5042794;28;19929;-83
2022/06/03 13:05:33;;;;;;;;;;;23.10;44.20;;;;;;5044232;28;19913;-86
2022/06/03 13:07:58;;;;;;;;;;;22.90;44.50;;;;;;5050302;28;19991;-85
2022/06/03 13:10:26;;;;;;;;;;;22.90;44.70;;;;;;5048890;28;19921;-88
2022/06/03 13:12:52;;;;;;;;;;;23.10;44.50;;;;;;5052109;28;19917;-85
2022/06/03 13:15:18;;;;;;;;;;;23.10;43.00;;;;;;5043740;28;20001;-87
2022/06/03 13:18:10;;;;;;;;;;;23.20;43.60;;;;;;5037109;28;19948;-86
2022/06/03 13:20:38;;;;;;;;;;;23.00;44.00;;;;;;5051157;28;20364;-85
2022/06/03 13:23:19;;;;;;;;;;;23.00;45.50;;;;;;5051344;28;19916;-85
2022/06/03 13:25:44;;;;;;;;;;;23.10;45.40;;;;;;5065371;28;19971;-87
2022/06/03 13:28:29;;;;;;;;;;;23.20;45.60;;;;;;5057381;28;19909;-86
2022/06/03 13:31:05;;;;;;;;;;;23.10;44.50;;;;;;5049381;28;19979;-86
2022/06/03 13:33:31;;;;;;;;;;;23.30;44.90;;;;;;5051043;28;19917;-85
2022/06/03 13:36:20;;;;;;;;;;;23.50;43.00;;;;;;5048159;28;19921;-85
2022/06/03 13:38:47;;;;;;;;;;;23.60;44.00;;;;;;5046651;28;19935;-86
2022/06/03 13:44:07;;;;;;;;;;;23.60;45.40;;;;;;5054023;28;19994;-86
2022/06/03 13:46:33;;;;;;;;;;;23.60;44.30;;;;;;5056491;28;19908;-85
2022/06/03 13:49:00;;;;;;;;;;;23.60;42.80;;;;;;5051700;28;19917;-85
2022/06/03 13:51:29;;;;;;;;;;;23.60;44.10;;;;;;5045249;28;20000;-85
2022/06/03 13:53:57;;;;;;;;;;;23.60;43.90;;;;;;5057664;28;19959;-85
2022/06/03 13:56:25;;;;;;;;;;;23.80;44.50;;;;;;5049578;28;20437;-86
2022/06/03 13:58:50;;;;;;;;;;;24.10;43.10;;;;;;5051390;28;19962;-86
2022/06/03 14:01:22;;;;;;;;;;;24.10;41.90;;;;;;5051049;28;19952;-86
2022/06/03 14:03:56;;;;;;;;;;;24.10;41.70;;;;;;5049296;28;19920;-87
2022/06/03 14:06:21;;;;;;;;;;;24.00;42.70;;;;;;5051200;28;20554;-85
2022/06/03 14:08:50;;;;;;;;;;;24.00;44.00;;;;;;5048853;28;19920;-86
2022/06/03 14:11:22;;;;;;;;;;;23.80;43.30;;;;;;5032103;28;20376;-84
2022/06/03 14:13:58;;;;;;;;;;;24.00;42.10;;;;;;5021418;28;19912;-86
2022/06/03 14:16:42;;;;;;;;;;;23.90;43.50;;;;;;5018975;28;19916;-88
2022/06/03 14:19:07;;;;;;;;;;;23.90;43.20;;;;;;5020140;28;19909;-86
2022/06/03 14:21:47;;;;;;;;;;;23.80;43.10;;;;;;5023728;28;20396;-85
2022/06/03 14:24:25;;;;;;;;;;;23.60;43.30;;;;;;5010899;28;20309;-86
2022/06/03 14:26:52;;;;;;;;;;;23.70;43.60;;;;;;5024692;28;19962;-87
2022/06/03 14:29:22;;;;;;;;;;;23.80;43.10;;;;;;5025727;28;20047;-85
2022/06/03 14:31:56;;;;;;;;;;;23.80;43.30;;;;;;5023189;28;19913;-85
2022/06/03 14:34:21;;;;;;;;;;;23.90;44.50;;;;;;5022451;28;19913;-85
2022/06/03 14:36:48;;;;;;;;;;;24.00;43.60;;;;;;5024437;28;20291;-86
2022/06/03 14:39:22;;;;;;;;;;;24.10;42.50;;;;;;5022964;28;19913;-85
2022/06/03 14:41:51;;;;;;;;;;;24.20;42.80;;;;;;5024351;28;20419;-84
2022/06/03 14:44:18;;;;;;;;;;;24.00;43.10;;;;;;5021709;28;19917;-85
2022/06/03 14:47:05;;;;;;;;;;;23.80;44.30;;;;;;5023978;28;19959;-88
2022/06/03 14:49:33;;;;;;;;;;;23.80;43.30;;;;;;5043240;28;19908;-87
2022/06/03 14:52:04;;;;;;;;;;;23.70;43.20;;;;;;5026339;28;20407;-88
2022/06/03 14:54:34;;;;;;;;;;;23.60;42.90;;;;;;5043543;28;20026;-86
2022/06/03 14:57:02;;;;;;;;;;;23.60;42.90;;;;;;5024414;28;20037;-85
2022/06/03 14:59:37;;;;;;;;;;;23.60;42.90;;;;;;5025002;28;19990;-86
2022/06/03 15:02:09;;;;;;;;;;;23.60;43.60;;;;;;5024481;28;19919;-86
2022/06/03 15:04:47;;;;;;;;;;;24.00;41.20;;;;;;5020793;28;20093;-87
2022/06/03 15:07:35;;;;;;;;;;;24.00;43.10;;;;;;5019678;28;20028;-86
2022/06/03 15:10:06;;;;;;;;;;;24.40;43.10;;;;;;5021372;28;19991;-87
2022/06/03 15:12:33;;;;;;;;;;;24.30;44.80;;;;;;5029196;28;20358;-86
2022/06/03 15:14:59;;;;;;;;;;;24.30;45.70;;;;;;5019621;28;19948;-85
2022/06/03 15:17:26;;;;;;;;;;;24.40;46.20;;;;;;5020418;28;19948;-85
2022/06/03 15:19:53;;;;;;;;;;;24.40;45.00;;;;;;5020933;28;20333;-87
2022/06/03 15:22:21;;;;;;;;;;;24.30;45.60;;;;;;5021451;28;19944;-85
2022/06/03 15:24:49;;;;;;;;;;;24.30;46.30;;;;;;5027248;28;20306;-89
2022/06/03 15:27:15;;;;;;;;;;;24.30;45.80;;;;;;5027914;28;19913;-87
2022/06/03 15:29:41;;;;;;;;;;;24.40;44.90;;;;;;5027540;28;19912;-87
2022/06/03 15:32:06;;;;;;;;;;;24.30;44.80;;;;;;5027999;28;20565;-86
2022/06/03 15:34:33;;;;;;;;;;;24.30;45.70;;;;;;5026779;28;20310;-85
2022/06/03 15:36:59;;;;;;;;;;;24.10;47.10;;;;;;5023766;28;19924;-86
2022/06/03 15:39:27;;;;;;;;;;;24.10;45.30;;;;;;5024393;28;19912;-87
2022/06/03 15:41:53;;;;;;;;;;;24.10;45.10;;;;;;5022442;28;19909;-86
2022/06/03 15:44:35;;;;;;;;;;;24.00;46.20;;;;;;5022332;28;19967;-86